createdAt,value
2023-06-16T00:00:21.750Z,18.74
2023-06-16T00:03:26.028Z,18.72
2023-06-16T00:06:32.226Z,18.65
2023-06-16T00:09:36.170Z,18.61
2023-06-16T00:12:41.690Z,18.65
2023-06-16T00:15:45.854Z,18.61
2023-06-16T00:18:53.181Z,18.65
2023-06-16T00:22:02.096Z,18.61
2023-06-16T00:25:06.147Z,18.55
2023-06-16T00:28:10.015Z,18.53
2023-06-16T00:31:13.970Z,18.49
2023-06-16T00:34:18.072Z,18.45
2023-06-16T00:37:22.036Z,18.37
2023-06-16T00:40:26.061Z,18.41
2023-06-16T00:43:30.090Z,18.41
2023-06-16T00:46:37.730Z,18.39
2023-06-16T00:49:42.019Z,18.29
2023-06-16T00:52:46.140Z,18.24
2023-06-16T00:55:51.751Z,18.25
2023-06-16T00:58:56.615Z,18.29
2023-06-16T01:02:00.689Z,18.28
2023-06-16T01:05:08.875Z,18.31
2023-06-16T01:08:36.073Z,18.30
2023-06-16T01:11:52.889Z,18.34
2023-06-16T01:15:05.632Z,18.21
2023-06-16T01:18:10.932Z,18.24
2023-06-16T01:21:32.285Z,18.21
2023-06-16T01:24:37.012Z,18.16
2023-06-16T01:27:48.587Z,18.14
2023-06-16T01:30:55.068Z,18.10
2023-06-16T01:34:02.303Z,18.11
2023-06-16T01:37:07.570Z,18.04
2023-06-16T01:40:13.047Z,18.06
2023-06-16T01:43:17.796Z,18.04
2023-06-16T01:46:23.265Z,18.03
2023-06-16T01:49:27.960Z,18.00
2023-06-16T01:52:31.766Z,17.98
2023-06-16T01:55:35.722Z,17.98
2023-06-16T01:58:39.967Z,17.96
2023-06-16T02:01:50.941Z,17.91
2023-06-16T02:04:56.085Z,17.74
2023-06-16T02:08:02.286Z,17.76
2023-06-16T02:11:06.863Z,17.80
2023-06-16T02:14:11.968Z,17.85
2023-06-16T02:17:16.555Z,17.84
2023-06-16T02:20:21.190Z,17.79
2023-06-16T02:23:26.181Z,17.82
2023-06-16T02:26:30.382Z,17.79
2023-06-16T02:29:34.604Z,17.79
2023-06-16T02:32:46.141Z,17.82
2023-06-16T02:35:57.302Z,17.79
2023-06-16T02:39:01.086Z,17.78
2023-06-16T02:42:05.378Z,17.76
2023-06-16T02:45:09.649Z,17.72
2023-06-16T02:48:13.770Z,17.71
2023-06-16T02:51:17.775Z,17.65
2023-06-16T02:54:21.991Z,17.62
2023-06-16T02:57:26.124Z,17.60
2023-06-16T03:00:30.506Z,17.59
2023-06-16T03:03:37.570Z,17.55
2023-06-16T03:06:46.111Z,17.54
2023-06-16T03:09:51.021Z,17.55
2023-06-16T03:12:54.884Z,17.52
2023-06-16T03:15:58.790Z,17.49
2023-06-16T03:19:02.926Z,17.44
2023-06-16T03:22:07.921Z,17.52
2023-06-16T03:25:11.800Z,17.55
2023-06-16T03:28:15.490Z,17.56
2023-06-16T03:31:20.645Z,17.55
2023-06-16T03:34:25.433Z,17.54
2023-06-16T03:37:29.681Z,17.50
2023-06-16T03:40:33.399Z,17.44
2023-06-16T03:43:37.149Z,17.39
2023-06-16T03:46:41.738Z,17.34
2023-06-16T03:49:46.068Z,17.30
2023-06-16T03:52:59.245Z,17.25
2023-06-16T03:56:13.998Z,17.25
2023-06-16T03:59:17.882Z,17.26
2023-06-16T04:02:21.790Z,17.27
2023-06-16T04:05:25.848Z,17.23
2023-06-16T04:08:29.801Z,17.26
2023-06-16T04:11:34.196Z,17.27
2023-06-16T04:14:38.160Z,17.22
2023-06-16T04:17:42.843Z,17.17
2023-06-16T04:20:46.906Z,17.13
2023-06-16T04:23:51.271Z,17.12
2023-06-16T04:26:59.306Z,17.10
2023-06-16T04:30:06.334Z,17.08
2023-06-16T04:33:11.414Z,17.02
2023-06-16T04:36:18.211Z,17.02
2023-06-16T04:39:22.021Z,16.96
2023-06-16T04:42:26.043Z,16.93
2023-06-16T04:45:30.117Z,16.96
2023-06-16T04:48:34.298Z,16.95
2023-06-16T04:51:38.288Z,16.93
2023-06-16T04:54:42.370Z,16.94
2023-06-16T04:57:46.744Z,16.96
2023-06-16T05:00:51.605Z,16.99
2023-06-16T05:03:58.785Z,17.02
2023-06-16T05:07:04.639Z,17.04
2023-06-16T05:10:09.451Z,17.02
2023-06-16T05:13:13.542Z,17.08
2023-06-16T05:16:17.714Z,17.14
2023-06-16T05:19:21.802Z,17.17
2023-06-16T05:22:26.317Z,17.22
2023-06-16T05:25:33.565Z,17.26
2023-06-16T05:28:37.777Z,17.27
2023-06-16T05:31:41.934Z,17.29
2023-06-16T05:34:48.625Z,17.27
2023-06-16T05:37:52.521Z,17.40
2023-06-16T05:40:56.439Z,17.45
2023-06-16T05:44:00.704Z,17.40
2023-06-16T05:47:05.174Z,17.44
2023-06-16T05:50:09.492Z,17.44
2023-06-16T05:53:13.405Z,17.47
2023-06-16T05:56:17.776Z,17.55
2023-06-16T05:59:21.817Z,17.59
2023-06-16T06:02:26.223Z,17.60
2023-06-16T06:05:30.566Z,17.64
2023-06-16T06:08:34.869Z,17.54
2023-06-16T06:11:39.057Z,17.53
2023-06-16T06:14:43.207Z,17.45
2023-06-16T06:17:47.170Z,17.42
2023-06-16T06:20:51.265Z,17.35
2023-06-16T06:23:55.812Z,17.27
2023-06-16T06:27:00.180Z,17.33
2023-06-16T06:30:04.415Z,17.40
2023-06-16T06:33:08.288Z,17.40
2023-06-16T06:36:12.674Z,17.44
2023-06-16T06:39:17.354Z,17.53
2023-06-16T06:42:22.049Z,17.62
2023-06-16T06:45:26.384Z,17.72
2023-06-16T06:48:30.822Z,17.70
2023-06-16T06:51:34.805Z,17.66
2023-06-16T06:54:39.217Z,17.64
2023-06-16T06:57:43.791Z,17.63
2023-06-16T07:00:48.228Z,17.44
2023-06-16T07:03:52.380Z,17.33
2023-06-16T07:06:56.970Z,17.37
2023-06-16T07:10:02.198Z,17.35
2023-06-16T07:13:07.709Z,17.39
2023-06-16T07:16:12.191Z,17.50
2023-06-16T07:19:16.094Z,17.59
2023-06-16T07:22:21.193Z,17.83
2023-06-16T07:25:25.323Z,18.08
2023-06-16T07:28:29.379Z,18.05
2023-06-16T07:31:33.556Z,18.15
2023-06-16T07:34:40.120Z,18.13
2023-06-16T07:37:44.140Z,18.12
2023-06-16T07:40:48.154Z,18.03
2023-06-16T07:43:54.042Z,18.20
2023-06-16T07:46:58.211Z,18.27
2023-06-16T07:50:02.795Z,18.30
2023-06-16T07:53:06.507Z,18.33
2023-06-16T07:56:10.967Z,18.30
2023-06-16T07:59:15.304Z,18.51
2023-06-16T08:02:19.662Z,18.66
2023-06-16T08:05:23.990Z,18.71
2023-06-16T08:08:28.687Z,18.56
2023-06-16T08:11:32.770Z,18.52
2023-06-16T08:14:37.791Z,18.52
2023-06-16T08:17:42.583Z,18.46
2023-06-16T08:20:47.317Z,18.38
2023-06-16T08:23:53.524Z,18.36
2023-06-16T08:26:57.977Z,18.26
2023-06-16T08:30:03.020Z,18.14
2023-06-16T08:33:07.479Z,17.95
2023-06-16T08:36:12.360Z,17.93
2023-06-16T08:39:16.691Z,17.92
2023-06-16T08:42:21.969Z,17.91
2023-06-16T08:45:27.097Z,17.85
2023-06-16T08:48:31.709Z,17.78
2023-06-16T08:51:38.252Z,17.68
2023-06-16T08:54:49.220Z,17.47
2023-06-16T08:57:54.398Z,17.33
2023-06-16T09:01:03.898Z,17.13
2023-06-16T09:04:10.881Z,17.03
2023-06-16T09:07:20.345Z,16.96
2023-06-16T09:10:24.556Z,16.95
2023-06-16T09:13:28.965Z,16.85
2023-06-16T09:16:33.180Z,16.85
2023-06-16T09:19:48.708Z,16.67
2023-06-16T09:23:02.222Z,16.65
2023-06-16T09:26:16.433Z,16.76
2023-06-16T09:29:23.204Z,16.81
2023-06-16T09:32:37.859Z,16.78
2023-06-16T09:35:43.111Z,16.72
2023-06-16T09:38:51.258Z,16.73
2023-06-16T09:41:55.505Z,16.65
2023-06-16T09:44:59.751Z,16.56
2023-06-16T09:48:06.397Z,16.51
2023-06-16T09:51:11.577Z,16.39
2023-06-16T09:54:16.031Z,16.44
2023-06-16T09:57:20.856Z,16.43
2023-06-16T10:00:26.260Z,16.39
2023-06-16T10:03:33.918Z,16.52
2023-06-16T10:06:43.161Z,16.65
2023-06-16T10:10:02.567Z,16.73
2023-06-16T10:13:11.428Z,16.86
2023-06-16T10:16:16.971Z,16.88
2023-06-16T10:19:23.248Z,16.92
2023-06-16T10:22:27.926Z,16.87
2023-06-16T10:25:32.433Z,16.88
2023-06-16T10:28:37.771Z,16.85
2023-06-16T10:31:44.711Z,16.83
2023-06-16T10:34:57.987Z,16.79
2023-06-16T10:38:02.527Z,16.82
2023-06-16T10:41:13.133Z,16.86
2023-06-16T10:44:32.529Z,16.94
2023-06-16T10:47:37.095Z,16.92
2023-06-16T10:50:41.681Z,17.03
2023-06-16T10:53:46.774Z,17.07
2023-06-16T10:57:13.794Z,17.10
2023-06-16T11:00:20.245Z,17.13
2023-06-16T11:03:29.961Z,17.23
2023-06-16T11:07:13.366Z,17.26
2023-06-16T11:10:29.163Z,17.33
2023-06-16T11:13:39.475Z,17.36
2023-06-16T11:16:45.661Z,17.41
2023-06-16T11:19:55.178Z,17.56
2023-06-16T11:22:59.102Z,17.75
2023-06-16T11:26:12.164Z,17.87
2023-06-16T11:29:17.032Z,17.92
2023-06-16T11:32:29.288Z,17.90
2023-06-16T11:35:34.437Z,17.92
2023-06-16T11:38:38.207Z,17.96
2023-06-16T11:41:50.241Z,17.96
2023-06-16T11:45:05.183Z,18.11
2023-06-16T11:48:10.713Z,18.30
2023-06-16T11:51:15.620Z,18.50
2023-06-16T11:54:22.067Z,18.65
2023-06-16T11:57:26.414Z,18.80
2023-06-16T12:00:30.742Z,18.97
2023-06-16T12:03:41.226Z,19.00
2023-06-16T12:06:50.632Z,19.04
2023-06-16T12:09:56.577Z,18.95
2023-06-16T12:13:00.521Z,18.87
2023-06-16T12:16:06.598Z,18.96
2023-06-16T12:19:10.810Z,18.87
2023-06-16T12:22:14.899Z,18.75
2023-06-16T12:25:19.117Z,18.75
2023-06-16T12:28:22.895Z,18.70
2023-06-16T12:31:27.854Z,18.75
2023-06-16T12:34:34.310Z,18.73
2023-06-16T12:37:42.767Z,18.89
2023-06-16T12:40:47.099Z,19.05
2023-06-16T12:43:52.650Z,19.05
2023-06-16T12:46:56.719Z,19.02
2023-06-16T12:50:02.117Z,19.18
2023-06-16T12:53:06.407Z,19.37
2023-06-16T12:56:15.815Z,19.34
2023-06-16T12:59:20.050Z,19.29
2023-06-16T13:02:24.320Z,19.35
2023-06-16T13:05:28.757Z,19.39
2023-06-16T13:08:32.821Z,19.45
2023-06-16T13:11:36.935Z,19.45
2023-06-16T13:14:40.952Z,19.55
2023-06-16T13:17:44.852Z,19.65
2023-06-16T13:20:49.530Z,19.63
2023-06-16T13:23:53.869Z,19.62
2023-06-16T13:26:57.811Z,19.38
2023-06-16T13:30:02.049Z,19.23
2023-06-16T13:33:06.447Z,19.31
2023-06-16T13:36:12.790Z,19.43
2023-06-16T13:39:17.078Z,19.48
2023-06-16T13:42:21.331Z,19.61
2023-06-16T13:45:25.411Z,19.68
2023-06-16T13:48:29.803Z,19.75
2023-06-16T13:51:34.039Z,19.71
2023-06-16T13:54:38.184Z,19.79
2023-06-16T13:57:42.211Z,19.82
2023-06-16T14:00:46.319Z,19.93
2023-06-16T14:03:50.652Z,20.21
2023-06-16T14:06:54.952Z,20.42
2023-06-16T14:09:59.122Z,20.53
2023-06-16T14:13:03.150Z,20.48
2023-06-16T14:16:07.244Z,20.38
2023-06-16T14:19:11.749Z,20.26
2023-06-16T14:22:15.789Z,20.25
2023-06-16T14:25:19.730Z,20.27
2023-06-16T14:28:23.675Z,20.31
2023-06-16T14:31:27.850Z,20.21
2023-06-16T14:34:32.258Z,20.12
2023-06-16T14:37:36.507Z,20.07
2023-06-16T14:40:40.318Z,20.15
2023-06-16T14:43:44.210Z,20.33
2023-06-16T14:46:48.190Z,20.55
2023-06-16T14:49:52.242Z,20.65
2023-06-16T14:52:56.651Z,20.59
2023-06-16T14:56:00.892Z,20.51
2023-06-16T14:59:05.160Z,20.34
2023-06-16T15:02:09.321Z,20.27
2023-06-16T15:05:15.133Z,20.16
2023-06-16T15:08:19.096Z,20.40
2023-06-16T15:11:23.194Z,20.66
2023-06-16T15:14:27.144Z,20.77
2023-06-16T15:17:31.079Z,20.81
2023-06-16T15:20:35.770Z,20.90
2023-06-16T15:23:41.618Z,20.83
2023-06-16T15:26:46.577Z,20.79
2023-06-16T15:29:50.557Z,20.68
2023-06-16T15:32:54.906Z,20.62
2023-06-16T15:36:00.790Z,20.51
2023-06-16T15:39:08.032Z,20.48
2023-06-16T15:42:13.068Z,20.44
2023-06-16T15:45:16.978Z,20.43
2023-06-16T15:48:21.116Z,20.34
2023-06-16T15:51:25.266Z,20.23
2023-06-16T15:54:29.601Z,20.33
2023-06-16T15:57:33.671Z,20.19
2023-06-16T16:00:38.017Z,20.14
2023-06-16T16:03:42.040Z,20.17
2023-06-16T16:06:46.239Z,20.07
2023-06-16T16:09:50.225Z,20.00
2023-06-16T16:12:54.459Z,19.99
2023-06-16T16:15:58.823Z,19.99
2023-06-16T16:19:02.920Z,20.00
2023-06-16T16:22:07.408Z,20.00
2023-06-16T16:25:11.643Z,19.95
2023-06-16T16:28:15.867Z,19.89
2023-06-16T16:31:19.994Z,19.78
2023-06-16T16:34:24.005Z,19.77
2023-06-16T16:37:28.238Z,19.74
2023-06-16T16:40:33.537Z,19.62
2023-06-16T16:43:37.582Z,19.56
2023-06-16T16:46:41.682Z,19.50
2023-06-16T16:49:46.160Z,19.54
2023-06-16T16:52:50.358Z,19.69
2023-06-16T16:55:54.584Z,19.72
2023-06-16T16:58:58.904Z,19.80
2023-06-16T17:02:02.991Z,19.85
2023-06-16T17:05:07.612Z,19.85
2023-06-16T17:08:12.433Z,19.86
2023-06-16T17:11:17.011Z,19.86
2023-06-16T17:14:23.190Z,19.85
2023-06-16T17:17:27.323Z,19.85
2023-06-16T17:20:31.566Z,19.81
2023-06-16T17:23:35.717Z,19.78
2023-06-16T17:26:39.725Z,19.69
2023-06-16T17:29:43.675Z,19.68
2023-06-16T17:32:47.875Z,19.62
2023-06-16T17:35:53.888Z,19.63
2023-06-16T17:38:58.156Z,19.59
2023-06-16T17:42:02.383Z,19.56
2023-06-16T17:45:06.998Z,19.55
2023-06-16T17:48:11.290Z,19.58
2023-06-16T17:51:15.407Z,19.55
2023-06-16T17:54:22.230Z,19.50
2023-06-16T17:57:26.426Z,19.49
2023-06-16T18:00:30.900Z,19.58
2023-06-16T18:03:35.134Z,19.51
2023-06-16T18:06:41.908Z,19.49
2023-06-16T18:09:45.860Z,19.50
2023-06-16T18:12:50.111Z,19.45
2023-06-16T18:15:54.355Z,19.45
2023-06-16T18:18:59.789Z,19.41
2023-06-16T18:22:04.301Z,19.38
2023-06-16T18:25:08.840Z,19.39
2023-06-16T18:28:12.736Z,19.38
2023-06-16T18:31:19.076Z,19.41
2023-06-16T18:34:23.420Z,19.44
2023-06-16T18:37:27.492Z,19.45
2023-06-16T18:40:31.503Z,19.46
2023-06-16T18:43:35.830Z,19.44
2023-06-16T18:46:40.458Z,19.45
2023-06-16T18:49:44.855Z,19.44
2023-06-16T18:52:49.038Z,19.40
2023-06-16T18:55:53.034Z,19.34
2023-06-16T18:58:57.783Z,19.25
2023-06-16T19:02:01.664Z,19.28
2023-06-16T19:05:08.649Z,19.17
2023-06-16T19:08:14.907Z,19.13
2023-06-16T19:11:19.759Z,19.11
2023-06-16T19:14:23.732Z,19.11
2023-06-16T19:17:27.601Z,19.15
2023-06-16T19:20:31.974Z,19.12
2023-06-16T19:23:35.990Z,19.12
2023-06-16T19:26:39.997Z,19.12
2023-06-16T19:29:44.276Z,19.07
2023-06-16T19:32:48.242Z,19.05
2023-06-16T19:35:52.786Z,19.03
2023-06-16T19:38:58.892Z,19.01
2023-06-16T19:42:03.092Z,19.03
2023-06-16T19:45:07.973Z,18.99
2023-06-16T19:48:12.062Z,18.95
2023-06-16T19:51:16.058Z,18.94
2023-06-16T19:54:21.408Z,18.93
2023-06-16T19:57:25.827Z,18.87
2023-06-16T20:00:29.679Z,18.80
2023-06-16T20:03:33.648Z,18.78
2023-06-16T20:06:38.384Z,18.72
2023-06-16T20:09:42.704Z,18.67
2023-06-16T20:12:47.435Z,18.63
2023-06-16T20:15:51.511Z,18.65
2023-06-16T20:18:55.671Z,18.55
2023-06-16T20:21:59.819Z,18.55
2023-06-16T20:25:04.884Z,18.52
2023-06-16T20:28:08.771Z,18.47
2023-06-16T20:31:13.249Z,18.39
2023-06-16T20:34:17.375Z,18.31
2023-06-16T20:37:21.521Z,18.30
2023-06-16T20:40:27.716Z,18.31
2023-06-16T20:43:32.896Z,18.29
2023-06-16T20:46:38.319Z,18.22
2023-06-16T20:49:42.777Z,18.19
2023-06-16T20:52:49.941Z,18.13
2023-06-16T20:55:54.097Z,18.15
2023-06-16T20:59:00.059Z,18.08
2023-06-16T21:02:06.853Z,18.07
2023-06-16T21:05:12.169Z,18.00
2023-06-16T21:08:19.743Z,17.96
2023-06-16T21:11:26.596Z,17.90
2023-06-16T21:14:30.749Z,17.87
2023-06-16T21:17:35.000Z,17.86
2023-06-16T21:20:39.301Z,17.82
2023-06-16T21:23:43.538Z,17.87
2023-06-16T21:26:47.755Z,17.85
2023-06-16T21:29:52.167Z,17.82
2023-06-16T21:32:57.672Z,17.74
2023-06-16T21:36:01.934Z,17.76
2023-06-16T21:39:06.007Z,17.81
2023-06-16T21:42:10.663Z,17.78
2023-06-16T21:45:15.036Z,17.76
2023-06-16T21:48:19.950Z,17.74
2023-06-16T21:51:24.369Z,17.72
2023-06-16T21:54:28.363Z,17.64
2023-06-16T21:57:32.586Z,17.71
2023-06-16T22:00:37.469Z,17.67
2023-06-16T22:03:41.458Z,17.73
2023-06-16T22:06:47.912Z,17.73
2023-06-16T22:09:52.820Z,17.61
2023-06-16T22:12:56.625Z,17.61
2023-06-16T22:16:01.431Z,17.54
2023-06-16T22:19:05.519Z,17.55
2023-06-16T22:22:11.082Z,17.58
2023-06-16T22:25:15.319Z,17.55
2023-06-16T22:28:19.328Z,17.56
2023-06-16T22:31:23.274Z,17.71
2023-06-16T22:34:27.876Z,17.61
2023-06-16T22:37:31.891Z,17.36
2023-06-16T22:40:35.849Z,17.42
2023-06-16T22:43:39.846Z,17.31
2023-06-16T22:46:45.065Z,17.23
2023-06-16T22:49:49.287Z,17.25
2023-06-16T22:52:53.191Z,17.20
2023-06-16T22:55:57.031Z,17.18
2023-06-16T22:59:00.913Z,17.17
2023-06-16T23:02:05.241Z,17.18
2023-06-16T23:05:09.804Z,17.15
2023-06-16T23:08:13.985Z,17.14
2023-06-16T23:11:17.675Z,17.10
2023-06-16T23:14:21.717Z,17.09
2023-06-16T23:17:26.151Z,17.07
2023-06-16T23:20:34.886Z,17.07
2023-06-16T23:23:38.664Z,17.06
2023-06-16T23:26:46.872Z,17.00
2023-06-16T23:29:53.065Z,16.95
2023-06-16T23:32:57.141Z,16.91
2023-06-16T23:36:00.886Z,16.88
2023-06-16T23:39:05.471Z,16.86
2023-06-16T23:42:09.808Z,16.84
2023-06-16T23:45:16.679Z,16.84
2023-06-16T23:48:20.756Z,16.77
2023-06-16T23:51:24.554Z,16.72
2023-06-16T23:54:28.927Z,16.71
2023-06-16T23:57:36.773Z,16.70
